sensor_id;sensor_type;location;lat;lon;timestamp;temperature;humidity
15834;DHT22;8017;50.812;4.934;2022-10-16T00:02:06;13.50;99.90
15834;DHT22;8017;50.812;4.934;2022-10-16T00:05:07;13.50;99.90
15834;DHT22;8017;50.812;4.934;2022-10-16T00:08:11;13.40;99.90
15834;DHT22;8017;50.812;4.934;2022-10-16T00:11:17;13.20;99.90
15834;DHT22;8017;50.812;4.934;2022-10-16T00:14:19;13.20;99.90
15834;DHT22;8017;50.812;4.934;2022-10-16T00:17:22;13.20;99.90
15834;DHT22;8017;50.812;4.934;2022-10-16T00:20:24;13.20;99.90
15834;DHT22;8017;50.812;4.934;2022-10-16T00:23:26;13.10;99.90
15834;DHT22;8017;50.812;4.934;2022-10-16T00:26:29;13.20;99.90
15834;DHT22;8017;50.812;4.934;2022-10-16T00:29:31;13.00;99.90
15834;DHT22;8017;50.812;4.934;2022-10-16T00:32:35;13.10;99.90
15834;DHT22;8017;50.812;4.934;2022-10-16T00:35:36;13.20;99.90
15834;DHT22;8017;50.812;4.934;2022-10-16T00:38:39;13.10;99.90
15834;DHT22;8017;50.812;4.934;2022-10-16T00:41:41;13.00;99.90
15834;DHT22;8017;50.812;4.934;2022-10-16T00:44:51;13.10;99.90
15834;DHT22;8017;50.812;4.934;2022-10-16T00:47:55;13.10;99.90
15834;DHT22;8017;50.812;4.934;2022-10-16T00:50:58;13.10;99.90
15834;DHT22;8017;50.812;4.934;2022-10-16T00:54:02;13.00;99.90
15834;DHT22;8017;50.812;4.934;2022-10-16T00:57:06;13.10;99.90
15834;DHT22;8017;50.812;4.934;2022-10-16T01:00:10;13.00;99.90
15834;DHT22;8017;50.812;4.934;2022-10-16T01:03:26;12.90;99.90
15834;DHT22;8017;50.812;4.934;2022-10-16T01:06:35;12.90;99.90
15834;DHT22;8017;50.812;4.934;2022-10-16T01:09:47;12.80;99.90
15834;DHT22;8017;50.812;4.934;2022-10-16T01:12:57;12.80;99.90
15834;DHT22;8017;50.812;4.934;2022-10-16T01:16:05;12.80;99.90
15834;DHT22;8017;50.812;4.934;2022-10-16T01:19:14;12.70;99.90
15834;DHT22;8017;50.812;4.934;2022-10-16T01:22:19;12.70;99.90
15834;DHT22;8017;50.812;4.934;2022-10-16T01:25:29;12.80;99.90
15834;DHT22;8017;50.812;4.934;2022-10-16T01:28:38;12.70;99.90
15834;DHT22;8017;50.812;4.934;2022-10-16T01:31:44;12.80;99.90
15834;DHT22;8017;50.812;4.934;2022-10-16T01:34:51;12.80;99.90
15834;DHT22;8017;50.812;4.934;2022-10-16T01:37:58;12.80;99.90
15834;DHT22;8017;50.812;4.934;2022-10-16T01:41:04;13.00;99.90
15834;DHT22;8017;50.812;4.934;2022-10-16T01:44:11;13.00;99.90
15834;DHT22;8017;50.812;4.934;2022-10-16T01:47:15;12.90;99.90
15834;DHT22;8017;50.812;4.934;2022-10-16T01:50:20;12.90;99.90
15834;DHT22;8017;50.812;4.934;2022-10-16T01:53:24;12.80;99.90
15834;DHT22;8017;50.812;4.934;2022-10-16T01:56:27;12.90;99.90
15834;DHT22;8017;50.812;4.934;2022-10-16T01:59:33;12.90;99.90
15834;DHT22;8017;50.812;4.934;2022-10-16T02:02:38;13.00;99.90
15834;DHT22;8017;50.812;4.934;2022-10-16T02:05:45;13.00;99.90
15834;DHT22;8017;50.812;4.934;2022-10-16T02:08:47;12.90;99.90
15834;DHT22;8017;50.812;4.934;2022-10-16T02:11:51;12.90;99.90
15834;DHT22;8017;50.812;4.934;2022-10-16T02:14:55;13.00;99.90
15834;DHT22;8017;50.812;4.934;2022-10-16T02:17:58;13.00;99.90
15834;DHT22;8017;50.812;4.934;2022-10-16T02:21:02;13.00;99.90
15834;DHT22;8017;50.812;4.934;2022-10-16T02:24:13;13.10;99.90
15834;DHT22;8017;50.812;4.934;2022-10-16T02:27:20;13.00;99.90
15834;DHT22;8017;50.812;4.934;2022-10-16T02:30:30;13.10;99.90
15834;DHT22;8017;50.812;4.934;2022-10-16T02:33:35;13.10;99.90
15834;DHT22;8017;50.812;4.934;2022-10-16T02:36:38;13.10;99.90
15834;DHT22;8017;50.812;4.934;2022-10-16T02:39:41;13.20;99.90
15834;DHT22;8017;50.812;4.934;2022-10-16T02:42:43;13.20;99.90
15834;DHT22;8017;50.812;4.934;2022-10-16T02:45:46;13.10;99.90
15834;DHT22;8017;50.812;4.934;2022-10-16T02:48:48;13.10;99.90
15834;DHT22;8017;50.812;4.934;2022-10-16T02:51:50;13.10;99.90
15834;DHT22;8017;50.812;4.934;2022-10-16T02:54:52;13.10;99.90
15834;DHT22;8017;50.812;4.934;2022-10-16T02:57:54;13.00;99.90
15834;DHT22;8017;50.812;4.934;2022-10-16T03:00:57;13.00;99.90
15834;DHT22;8017;50.812;4.934;2022-10-16T03:03:59;13.00;99.90
15834;DHT22;8017;50.812;4.934;2022-10-16T03:07:01;13.10;99.90
15834;DHT22;8017;50.812;4.934;2022-10-16T03:10:03;13.00;99.90
15834;DHT22;8017;50.812;4.934;2022-10-16T03:13:05;12.90;99.90
15834;DHT22;8017;50.812;4.934;2022-10-16T03:16:08;12.90;99.90
15834;DHT22;8017;50.812;4.934;2022-10-16T03:19:10;13.10;99.90
15834;DHT22;8017;50.812;4.934;2022-10-16T03:22:12;13.10;99.90
15834;DHT22;8017;50.812;4.934;2022-10-16T03:25:14;13.10;99.90
15834;DHT22;8017;50.812;4.934;2022-10-16T03:28:16;13.10;99.90
15834;DHT22;8017;50.812;4.934;2022-10-16T03:31:19;13.20;99.90
15834;DHT22;8017;50.812;4.934;2022-10-16T03:34:21;13.30;99.90
15834;DHT22;8017;50.812;4.934;2022-10-16T03:37:23;13.20;99.90
15834;DHT22;8017;50.812;4.934;2022-10-16T03:40:25;13.20;99.90
15834;DHT22;8017;50.812;4.934;2022-10-16T03:43:27;13.10;99.90
15834;DHT22;8017;50.812;4.934;2022-10-16T03:46:30;13.10;99.90
15834;DHT22;8017;50.812;4.934;2022-10-16T03:49:32;13.00;99.90
15834;DHT22;8017;50.812;4.934;2022-10-16T03:52:34;13.00;99.90
15834;DHT22;8017;50.812;4.934;2022-10-16T03:55:36;13.10;99.90
15834;DHT22;8017;50.812;4.934;2022-10-16T03:58:38;13.10;99.90
15834;DHT22;8017;50.812;4.934;2022-10-16T04:01:41;13.10;99.90
15834;DHT22;8017;50.812;4.934;2022-10-16T04:04:43;13.00;99.90
15834;DHT22;8017;50.812;4.934;2022-10-16T04:07:45;13.10;99.90
15834;DHT22;8017;50.812;4.934;2022-10-16T04:10:47;13.10;99.90
15834;DHT22;8017;50.812;4.934;2022-10-16T04:13:49;13.10;99.90
15834;DHT22;8017;50.812;4.934;2022-10-16T04:16:52;13.10;99.90
15834;DHT22;8017;50.812;4.934;2022-10-16T04:19:54;13.10;99.90
15834;DHT22;8017;50.812;4.934;2022-10-16T04:22:56;13.10;99.90
15834;DHT22;8017;50.812;4.934;2022-10-16T04:25:58;13.00;99.90
15834;DHT22;8017;50.812;4.934;2022-10-16T04:28:59;13.00;99.90
15834;DHT22;8017;50.812;4.934;2022-10-16T04:32:03;12.90;99.90
15834;DHT22;8017;50.812;4.934;2022-10-16T04:35:05;13.00;99.90
15834;DHT22;8017;50.812;4.934;2022-10-16T04:38:08;13.00;99.90
15834;DHT22;8017;50.812;4.934;2022-10-16T04:41:09;13.00;99.90
15834;DHT22;8017;50.812;4.934;2022-10-16T04:44:11;12.90;99.90
15834;DHT22;8017;50.812;4.934;2022-10-16T04:47:15;12.90;99.90
15834;DHT22;8017;50.812;4.934;2022-10-16T04:50:16;12.90;99.90
15834;DHT22;8017;50.812;4.934;2022-10-16T04:53:18;13.00;99.90
15834;DHT22;8017;50.812;4.934;2022-10-16T04:56:20;13.00;99.90
15834;DHT22;8017;50.812;4.934;2022-10-16T04:59:24;12.90;99.90
15834;DHT22;8017;50.812;4.934;2022-10-16T05:02:27;12.70;99.90
15834;DHT22;8017;50.812;4.934;2022-10-16T05:05:29;12.70;99.90
15834;DHT22;8017;50.812;4.934;2022-10-16T05:08:31;12.60;99.90
15834;DHT22;8017;50.812;4.934;2022-10-16T05:11:33;12.60;99.90
15834;DHT22;8017;50.812;4.934;2022-10-16T05:14:35;12.50;99.90
15834;DHT22;8017;50.812;4.934;2022-10-16T05:17:38;12.60;99.90
15834;DHT22;8017;50.812;4.934;2022-10-16T05:20:41;12.60;99.90
15834;DHT22;8017;50.812;4.934;2022-10-16T05:23:43;12.60;99.90
15834;DHT22;8017;50.812;4.934;2022-10-16T05:26:45;12.60;99.90
15834;DHT22;8017;50.812;4.934;2022-10-16T05:29:48;12.70;99.90
15834;DHT22;8017;50.812;4.934;2022-10-16T05:32:52;12.70;99.90
15834;DHT22;8017;50.812;4.934;2022-10-16T05:35:53;12.70;99.90
15834;DHT22;8017;50.812;4.934;2022-10-16T05:38:55;12.70;99.90
15834;DHT22;8017;50.812;4.934;2022-10-16T05:41:57;12.50;99.90
15834;DHT22;8017;50.812;4.934;2022-10-16T05:44:59;12.50;99.90
15834;DHT22;8017;50.812;4.934;2022-10-16T05:48:02;12.40;99.90
15834;DHT22;8017;50.812;4.934;2022-10-16T05:51:05;12.40;99.90
15834;DHT22;8017;50.812;4.934;2022-10-16T05:54:08;12.30;99.90
15834;DHT22;8017;50.812;4.934;2022-10-16T05:57:10;12.30;99.90
15834;DHT22;8017;50.812;4.934;2022-10-16T06:00:12;12.20;99.90
15834;DHT22;8017;50.812;4.934;2022-10-16T06:03:15;12.20;99.90
15834;DHT22;8017;50.812;4.934;2022-10-16T06:06:18;12.10;99.90
15834;DHT22;8017;50.812;4.934;2022-10-16T06:09:20;12.10;99.90
15834;DHT22;8017;50.812;4.934;2022-10-16T06:12:22;12.10;99.90
15834;DHT22;8017;50.812;4.934;2022-10-16T06:15:24;12.10;99.90
15834;DHT22;8017;50.812;4.934;2022-10-16T06:18:28;12.10;99.90
15834;DHT22;8017;50.812;4.934;2022-10-16T06:21:30;12.20;99.90
15834;DHT22;8017;50.812;4.934;2022-10-16T06:24:32;12.20;99.90
15834;DHT22;8017;50.812;4.934;2022-10-16T06:27:34;12.10;99.90
15834;DHT22;8017;50.812;4.934;2022-10-16T06:30:36;12.20;99.90
15834;DHT22;8017;50.812;4.934;2022-10-16T06:33:39;12.20;99.90
15834;DHT22;8017;50.812;4.934;2022-10-16T06:36:42;12.30;99.90
15834;DHT22;8017;50.812;4.934;2022-10-16T06:39:44;12.30;99.90
15834;DHT22;8017;50.812;4.934;2022-10-16T06:42:45;12.30;99.90
15834;DHT22;8017;50.812;4.934;2022-10-16T06:45:51;12.30;99.90
15834;DHT22;8017;50.812;4.934;2022-10-16T06:48:54;12.40;99.90
15834;DHT22;8017;50.812;4.934;2022-10-16T06:51:56;12.40;99.90
15834;DHT22;8017;50.812;4.934;2022-10-16T06:54:57;12.40;99.90
15834;DHT22;8017;50.812;4.934;2022-10-16T06:57:59;12.40;99.90
15834;DHT22;8017;50.812;4.934;2022-10-16T07:01:01;12.50;99.90
15834;DHT22;8017;50.812;4.934;2022-10-16T07:04:05;12.70;99.90
15834;DHT22;8017;50.812;4.934;2022-10-16T07:07:07;12.80;99.90
15834;DHT22;8017;50.812;4.934;2022-10-16T07:10:09;12.90;99.90
15834;DHT22;8017;50.812;4.934;2022-10-16T07:13:10;13.00;99.90
15834;DHT22;8017;50.812;4.934;2022-10-16T07:16:15;13.00;99.90
15834;DHT22;8017;50.812;4.934;2022-10-16T07:19:19;13.00;99.90
15834;DHT22;8017;50.812;4.934;2022-10-16T07:22:21;13.00;99.90
15834;DHT22;8017;50.812;4.934;2022-10-16T07:25:23;13.10;99.90
15834;DHT22;8017;50.812;4.934;2022-10-16T07:28:24;13.10;99.90
15834;DHT22;8017;50.812;4.934;2022-10-16T07:31:27;13.20;99.90
15834;DHT22;8017;50.812;4.934;2022-10-16T07:34:30;13.30;99.90
15834;DHT22;8017;50.812;4.934;2022-10-16T07:37:32;13.40;99.90
15834;DHT22;8017;50.812;4.934;2022-10-16T07:40:34;13.50;99.90
15834;DHT22;8017;50.812;4.934;2022-10-16T07:43:36;13.50;99.90
15834;DHT22;8017;50.812;4.934;2022-10-16T07:46:38;13.60;99.90
15834;DHT22;8017;50.812;4.934;2022-10-16T07:49:41;13.70;99.90
15834;DHT22;8017;50.812;4.934;2022-10-16T07:52:43;13.70;99.90
15834;DHT22;8017;50.812;4.934;2022-10-16T07:55:45;13.80;99.90
15834;DHT22;8017;50.812;4.934;2022-10-16T07:58:47;13.90;99.90
15834;DHT22;8017;50.812;4.934;2022-10-16T08:01:50;14.00;99.90
15834;DHT22;8017;50.812;4.934;2022-10-16T08:04:53;14.10;99.90
15834;DHT22;8017;50.812;4.934;2022-10-16T08:07:55;14.20;99.90
15834;DHT22;8017;50.812;4.934;2022-10-16T08:10:57;14.30;99.90
15834;DHT22;8017;50.812;4.934;2022-10-16T08:13:59;14.40;99.90
15834;DHT22;8017;50.812;4.934;2022-10-16T08:17:01;14.40;99.90
15834;DHT22;8017;50.812;4.934;2022-10-16T08:20:07;14.40;99.90
15834;DHT22;8017;50.812;4.934;2022-10-16T08:23:10;14.40;99.90
15834;DHT22;8017;50.812;4.934;2022-10-16T08:26:12;14.50;99.90
15834;DHT22;8017;50.812;4.934;2022-10-16T08:29:14;14.60;99.90
15834;DHT22;8017;50.812;4.934;2022-10-16T08:32:16;14.70;99.90
15834;DHT22;8017;50.812;4.934;2022-10-16T08:35:20;14.70;99.90
15834;DHT22;8017;50.812;4.934;2022-10-16T08:38:21;14.70;99.90
15834;DHT22;8017;50.812;4.934;2022-10-16T08:41:37;14.80;99.90
15834;DHT22;8017;50.812;4.934;2022-10-16T08:45:12;14.90;99.90
15834;DHT22;8017;50.812;4.934;2022-10-16T08:48:20;14.90;99.90
15834;DHT22;8017;50.812;4.934;2022-10-16T08:51:28;15.00;99.90
15834;DHT22;8017;50.812;4.934;2022-10-16T08:54:34;15.00;99.90
15834;DHT22;8017;50.812;4.934;2022-10-16T08:57:41;15.10;99.90
15834;DHT22;8017;50.812;4.934;2022-10-16T09:00:46;15.20;99.90
15834;DHT22;8017;50.812;4.934;2022-10-16T09:04:13;15.20;99.90
15834;DHT22;8017;50.812;4.934;2022-10-16T09:07:28;15.30;99.90
15834;DHT22;8017;50.812;4.934;2022-10-16T09:10:44;15.30;99.90
15834;DHT22;8017;50.812;4.934;2022-10-16T09:13:51;15.40;99.90
15834;DHT22;8017;50.812;4.934;2022-10-16T09:17:00;15.50;99.90
15834;DHT22;8017;50.812;4.934;2022-10-16T09:20:23;15.50;99.90
15834;DHT22;8017;50.812;4.934;2022-10-16T09:23:42;15.60;99.90
15834;DHT22;8017;50.812;4.934;2022-10-16T09:26:45;15.60;99.90
15834;DHT22;8017;50.812;4.934;2022-10-16T09:29:47;15.70;99.90
15834;DHT22;8017;50.812;4.934;2022-10-16T09:32:51;15.70;99.90
15834;DHT22;8017;50.812;4.934;2022-10-16T09:35:56;15.80;99.90
15834;DHT22;8017;50.812;4.934;2022-10-16T09:39:05;15.80;99.90
15834;DHT22;8017;50.812;4.934;2022-10-16T09:42:09;15.90;99.90
15834;DHT22;8017;50.812;4.934;2022-10-16T09:45:21;15.90;99.90
15834;DHT22;8017;50.812;4.934;2022-10-16T09:48:26;16.00;99.90
15834;DHT22;8017;50.812;4.934;2022-10-16T09:51:31;16.00;99.90
15834;DHT22;8017;50.812;4.934;2022-10-16T09:54:36;15.90;99.90
15834;DHT22;8017;50.812;4.934;2022-10-16T09:57:48;15.90;99.90
15834;DHT22;8017;50.812;4.934;2022-10-16T10:00:52;16.00;99.90
15834;DHT22;8017;50.812;4.934;2022-10-16T10:03:56;16.10;99.90
15834;DHT22;8017;50.812;4.934;2022-10-16T10:07:01;16.20;99.90
15834;DHT22;8017;50.812;4.934;2022-10-16T10:10:05;16.30;99.90
15834;DHT22;8017;50.812;4.934;2022-10-16T10:13:17;16.40;99.90
15834;DHT22;8017;50.812;4.934;2022-10-16T10:16:23;16.50;99.90
15834;DHT22;8017;50.812;4.934;2022-10-16T10:19:27;16.50;99.90
15834;DHT22;8017;50.812;4.934;2022-10-16T10:22:31;16.60;99.90
15834;DHT22;8017;50.812;4.934;2022-10-16T10:25:48;16.60;99.90
15834;DHT22;8017;50.812;4.934;2022-10-16T10:28:56;16.60;99.90
15834;DHT22;8017;50.812;4.934;2022-10-16T10:32:10;16.70;99.90
15834;DHT22;8017;50.812;4.934;2022-10-16T10:35:17;16.80;99.90
15834;DHT22;8017;50.812;4.934;2022-10-16T10:38:29;16.90;99.90
15834;DHT22;8017;50.812;4.934;2022-10-16T10:42:02;17.00;99.90
15834;DHT22;8017;50.812;4.934;2022-10-16T10:45:28;17.10;99.90
15834;DHT22;8017;50.812;4.934;2022-10-16T10:48:54;17.20;99.90
15834;DHT22;8017;50.812;4.934;2022-10-16T10:52:10;17.40;99.90
15834;DHT22;8017;50.812;4.934;2022-10-16T10:55:22;17.20;99.90
15834;DHT22;8017;50.812;4.934;2022-10-16T10:58:52;17.10;99.90
15834;DHT22;8017;50.812;4.934;2022-10-16T11:02:00;17.20;99.90
15834;DHT22;8017;50.812;4.934;2022-10-16T11:05:23;17.30;99.90
15834;DHT22;8017;50.812;4.934;2022-10-16T11:08:31;17.30;99.90
15834;DHT22;8017;50.812;4.934;2022-10-16T11:11:40;17.30;99.90
15834;DHT22;8017;50.812;4.934;2022-10-16T11:14:48;17.30;99.90
15834;DHT22;8017;50.812;4.934;2022-10-16T11:17:55;17.30;99.90
15834;DHT22;8017;50.812;4.934;2022-10-16T11:21:04;17.50;99.90
15834;DHT22;8017;50.812;4.934;2022-10-16T11:24:14;17.80;99.90
15834;DHT22;8017;50.812;4.934;2022-10-16T11:27:21;18.00;99.90
15834;DHT22;8017;50.812;4.934;2022-10-16T11:30:27;18.10;99.90
15834;DHT22;8017;50.812;4.934;2022-10-16T11:33:34;18.30;99.90
15834;DHT22;8017;50.812;4.934;2022-10-16T11:36:40;18.40;99.90
15834;DHT22;8017;50.812;4.934;2022-10-16T11:39:44;18.60;99.90
15834;DHT22;8017;50.812;4.934;2022-10-16T11:42:51;18.70;99.90
15834;DHT22;8017;50.812;4.934;2022-10-16T11:45:58;18.70;99.90
15834;DHT22;8017;50.812;4.934;2022-10-16T11:49:09;18.50;99.90
15834;DHT22;8017;50.812;4.934;2022-10-16T11:52:19;18.40;99.90
15834;DHT22;8017;50.812;4.934;2022-10-16T11:55:26;18.70;99.90
15834;DHT22;8017;50.812;4.934;2022-10-16T11:58:35;18.80;99.90
15834;DHT22;8017;50.812;4.934;2022-10-16T12:01:43;19.00;99.90
15834;DHT22;8017;50.812;4.934;2022-10-16T12:04:50;19.40;99.90
15834;DHT22;8017;50.812;4.934;2022-10-16T12:08:08;19.30;99.90
15834;DHT22;8017;50.812;4.934;2022-10-16T12:11:35;19.50;99.90
15834;DHT22;8017;50.812;4.934;2022-10-16T12:14:39;19.80;99.90
15834;DHT22;8017;50.812;4.934;2022-10-16T12:17:42;20.20;99.90
15834;DHT22;8017;50.812;4.934;2022-10-16T12:20:54;20.50;99.90
15834;DHT22;8017;50.812;4.934;2022-10-16T12:24:03;20.80;99.90
15834;DHT22;8017;50.812;4.934;2022-10-16T12:27:17;21.20;99.90
15834;DHT22;8017;50.812;4.934;2022-10-16T12:30:24;21.30;99.90
15834;DHT22;8017;50.812;4.934;2022-10-16T12:33:30;20.90;99.90
15834;DHT22;8017;50.812;4.934;2022-10-16T12:36:33;20.80;99.90
15834;DHT22;8017;50.812;4.934;2022-10-16T12:39:36;20.60;99.90
15834;DHT22;8017;50.812;4.934;2022-10-16T12:42:38;20.60;99.90
15834;DHT22;8017;50.812;4.934;2022-10-16T12:45:40;20.60;99.90
15834;DHT22;8017;50.812;4.934;2022-10-16T12:48:44;20.80;99.90
15834;DHT22;8017;50.812;4.934;2022-10-16T12:51:48;20.80;99.90
15834;DHT22;8017;50.812;4.934;2022-10-16T12:54:51;20.90;99.90
15834;DHT22;8017;50.812;4.934;2022-10-16T12:58:03;20.90;99.90
15834;DHT22;8017;50.812;4.934;2022-10-16T13:01:13;21.00;99.90
15834;DHT22;8017;50.812;4.934;2022-10-16T13:04:33;21.00;99.90
15834;DHT22;8017;50.812;4.934;2022-10-16T13:07:48;21.00;99.90
15834;DHT22;8017;50.812;4.934;2022-10-16T13:10:59;20.80;99.90
15834;DHT22;8017;50.812;4.934;2022-10-16T13:17:41;20.70;99.90
15834;DHT22;8017;50.812;4.934;2022-10-16T13:21:15;20.60;99.90
15834;DHT22;8017;50.812;4.934;2022-10-16T13:24:28;20.50;99.90
15834;DHT22;8017;50.812;4.934;2022-10-16T13:27:38;20.60;99.90
15834;DHT22;8017;50.812;4.934;2022-10-16T13:30:44;20.60;99.90
15834;DHT22;8017;50.812;4.934;2022-10-16T13:33:54;20.60;99.90
15834;DHT22;8017;50.812;4.934;2022-10-16T13:36:58;20.30;99.90
15834;DHT22;8017;50.812;4.934;2022-10-16T13:40:12;20.20;99.90
15834;DHT22;8017;50.812;4.934;2022-10-16T13:43:20;20.30;99.90
15834;DHT22;8017;50.812;4.934;2022-10-16T13:46:24;20.40;99.90
15834;DHT22;8017;50.812;4.934;2022-10-16T13:49:26;20.50;99.90
15834;DHT22;8017;50.812;4.934;2022-10-16T13:52:30;20.70;99.90
15834;DHT22;8017;50.812;4.934;2022-10-16T13:55:32;20.90;99.90
15834;DHT22;8017;50.812;4.934;2022-10-16T13:58:34;21.40;99.90
15834;DHT22;8017;50.812;4.934;2022-10-16T14:01:41;21.60;99.90
15834;DHT22;8017;50.812;4.934;2022-10-16T14:04:43;21.40;99.90
15834;DHT22;8017;50.812;4.934;2022-10-16T14:07:49;21.00;99.90
15834;DHT22;8017;50.812;4.934;2022-10-16T14:10:54;20.80;99.90
15834;DHT22;8017;50.812;4.934;2022-10-16T14:13:56;20.70;99.90
15834;DHT22;8017;50.812;4.934;2022-10-16T14:16:58;20.50;99.90
15834;DHT22;8017;50.812;4.934;2022-10-16T14:20:02;20.60;99.90
15834;DHT22;8017;50.812;4.934;2022-10-16T14:23:20;20.70;99.90
15834;DHT22;8017;50.812;4.934;2022-10-16T14:26:25;20.90;99.90
15834;DHT22;8017;50.812;4.934;2022-10-16T14:29:28;20.80;99.90
15834;DHT22;8017;50.812;4.934;2022-10-16T14:32:32;20.80;99.90
15834;DHT22;8017;50.812;4.934;2022-10-16T14:35:35;20.80;99.90
15834;DHT22;8017;50.812;4.934;2022-10-16T14:38:40;20.60;99.90
15834;DHT22;8017;50.812;4.934;2022-10-16T14:41:45;20.60;99.90
15834;DHT22;8017;50.812;4.934;2022-10-16T14:44:48;20.60;99.90
15834;DHT22;8017;50.812;4.934;2022-10-16T14:47:55;20.40;99.90
15834;DHT22;8017;50.812;4.934;2022-10-16T14:50:57;20.50;99.90
15834;DHT22;8017;50.812;4.934;2022-10-16T14:54:00;20.40;99.90
15834;DHT22;8017;50.812;4.934;2022-10-16T14:57:03;20.50;99.90
15834;DHT22;8017;50.812;4.934;2022-10-16T15:00:13;20.60;99.90
15834;DHT22;8017;50.812;4.934;2022-10-16T15:03:16;20.50;99.90
15834;DHT22;8017;50.812;4.934;2022-10-16T15:06:18;20.40;99.90
15834;DHT22;8017;50.812;4.934;2022-10-16T15:09:21;20.30;99.90
15834;DHT22;8017;50.812;4.934;2022-10-16T15:12:23;20.20;99.90
15834;DHT22;8017;50.812;4.934;2022-10-16T15:15:32;20.30;99.90
15834;DHT22;8017;50.812;4.934;2022-10-16T15:18:34;20.20;99.90
15834;DHT22;8017;50.812;4.934;2022-10-16T15:21:36;20.20;99.90
15834;DHT22;8017;50.812;4.934;2022-10-16T15:24:39;20.10;99.90
15834;DHT22;8017;50.812;4.934;2022-10-16T15:27:41;20.10;99.90
15834;DHT22;8017;50.812;4.934;2022-10-16T15:30:44;19.90;99.90
15834;DHT22;8017;50.812;4.934;2022-10-16T15:33:49;19.70;99.90
15834;DHT22;8017;50.812;4.934;2022-10-16T15:36:54;19.60;99.90
15834;DHT22;8017;50.812;4.934;2022-10-16T15:39:59;19.50;99.90
15834;DHT22;8017;50.812;4.934;2022-10-16T15:43:01;19.40;99.90
15834;DHT22;8017;50.812;4.934;2022-10-16T15:46:04;19.30;99.90
15834;DHT22;8017;50.812;4.934;2022-10-16T15:49:13;19.30;99.90
15834;DHT22;8017;50.812;4.934;2022-10-16T15:52:15;19.20;99.90
15834;DHT22;8017;50.812;4.934;2022-10-16T15:55:18;19.10;99.90
15834;DHT22;8017;50.812;4.934;2022-10-16T15:58:20;19.00;99.90
15834;DHT22;8017;50.812;4.934;2022-10-16T16:01:22;18.90;99.90
15834;DHT22;8017;50.812;4.934;2022-10-16T16:04:24;18.80;99.90
15834;DHT22;8017;50.812;4.934;2022-10-16T16:07:25;18.70;99.90
15834;DHT22;8017;50.812;4.934;2022-10-16T16:10:29;18.60;99.90
15834;DHT22;8017;50.812;4.934;2022-10-16T16:13:31;18.60;99.90
15834;DHT22;8017;50.812;4.934;2022-10-16T16:16:33;18.50;99.90
15834;DHT22;8017;50.812;4.934;2022-10-16T16:19:37;18.40;99.90
15834;DHT22;8017;50.812;4.934;2022-10-16T16:22:39;18.40;99.90
15834;DHT22;8017;50.812;4.934;2022-10-16T16:25:43;18.30;99.90
15834;DHT22;8017;50.812;4.934;2022-10-16T16:28:44;18.20;99.90
15834;DHT22;8017;50.812;4.934;2022-10-16T16:31:46;18.30;99.90
15834;DHT22;8017;50.812;4.934;2022-10-16T16:34:48;18.20;99.90
15834;DHT22;8017;50.812;4.934;2022-10-16T16:37:50;18.10;99.90
15834;DHT22;8017;50.812;4.934;2022-10-16T16:40:53;17.90;99.90
15834;DHT22;8017;50.812;4.934;2022-10-16T16:43:56;17.80;99.90
15834;DHT22;8017;50.812;4.934;2022-10-16T16:47:04;17.70;99.90
15834;DHT22;8017;50.812;4.934;2022-10-16T16:50:06;17.60;99.90
15834;DHT22;8017;50.812;4.934;2022-10-16T16:53:08;17.60;99.90
15834;DHT22;8017;50.812;4.934;2022-10-16T16:56:11;17.60;99.90
15834;DHT22;8017;50.812;4.934;2022-10-16T16:59:14;17.50;99.90
15834;DHT22;8017;50.812;4.934;2022-10-16T17:02:18;17.40;99.90
15834;DHT22;8017;50.812;4.934;2022-10-16T17:05:20;17.40;99.90
15834;DHT22;8017;50.812;4.934;2022-10-16T17:08:21;17.30;99.90
15834;DHT22;8017;50.812;4.934;2022-10-16T17:11:26;17.20;99.90
15834;DHT22;8017;50.812;4.934;2022-10-16T17:14:29;17.10;99.90
15834;DHT22;8017;50.812;4.934;2022-10-16T17:17:31;17.10;99.90
15834;DHT22;8017;50.812;4.934;2022-10-16T17:20:35;17.10;99.90
15834;DHT22;8017;50.812;4.934;2022-10-16T17:23:38;17.00;99.90
15834;DHT22;8017;50.812;4.934;2022-10-16T17:26:41;17.00;99.90
15834;DHT22;8017;50.812;4.934;2022-10-16T17:29:50;17.20;99.90
15834;DHT22;8017;50.812;4.934;2022-10-16T17:32:52;17.20;99.90
15834;DHT22;8017;50.812;4.934;2022-10-16T17:35:54;17.10;99.90
15834;DHT22;8017;50.812;4.934;2022-10-16T17:38:57;17.00;99.90
15834;DHT22;8017;50.812;4.934;2022-10-16T17:42:02;16.90;99.90
15834;DHT22;8017;50.812;4.934;2022-10-16T17:45:05;16.80;99.90
15834;DHT22;8017;50.812;4.934;2022-10-16T17:48:07;16.70;99.90
15834;DHT22;8017;50.812;4.934;2022-10-16T17:51:11;16.60;99.90
15834;DHT22;8017;50.812;4.934;2022-10-16T17:54:13;16.80;99.90
15834;DHT22;8017;50.812;4.934;2022-10-16T17:57:16;16.70;99.90
15834;DHT22;8017;50.812;4.934;2022-10-16T18:00:18;16.60;99.90
15834;DHT22;8017;50.812;4.934;2022-10-16T18:03:20;16.40;99.90
15834;DHT22;8017;50.812;4.934;2022-10-16T18:06:23;16.30;99.90
15834;DHT22;8017;50.812;4.934;2022-10-16T18:09:25;16.30;99.90
15834;DHT22;8017;50.812;4.934;2022-10-16T18:12:28;16.30;99.90
15834;DHT22;8017;50.812;4.934;2022-10-16T18:15:30;16.30;99.90
15834;DHT22;8017;50.812;4.934;2022-10-16T18:18:32;16.30;99.90
15834;DHT22;8017;50.812;4.934;2022-10-16T18:21:34;16.30;99.90
15834;DHT22;8017;50.812;4.934;2022-10-16T18:24:35;16.30;99.90
15834;DHT22;8017;50.812;4.934;2022-10-16T18:27:39;16.20;99.90
15834;DHT22;8017;50.812;4.934;2022-10-16T18:30:40;16.20;99.90
15834;DHT22;8017;50.812;4.934;2022-10-16T18:33:43;16.20;99.90
15834;DHT22;8017;50.812;4.934;2022-10-16T18:36:48;16.20;99.90
15834;DHT22;8017;50.812;4.934;2022-10-16T18:39:49;16.20;99.90
15834;DHT22;8017;50.812;4.934;2022-10-16T18:42:53;16.30;99.90
15834;DHT22;8017;50.812;4.934;2022-10-16T18:45:55;16.20;99.90
15834;DHT22;8017;50.812;4.934;2022-10-16T18:48:57;16.20;99.90
15834;DHT22;8017;50.812;4.934;2022-10-16T18:52:00;16.20;99.90
15834;DHT22;8017;50.812;4.934;2022-10-16T18:55:03;16.10;99.90
15834;DHT22;8017;50.812;4.934;2022-10-16T18:58:06;16.20;99.90
15834;DHT22;8017;50.812;4.934;2022-10-16T19:01:10;16.20;99.90
15834;DHT22;8017;50.812;4.934;2022-10-16T19:04:14;16.20;99.90
15834;DHT22;8017;50.812;4.934;2022-10-16T19:07:16;16.20;99.90
15834;DHT22;8017;50.812;4.934;2022-10-16T19:10:18;16.20;99.90
15834;DHT22;8017;50.812;4.934;2022-10-16T19:13:22;16.20;99.90
15834;DHT22;8017;50.812;4.934;2022-10-16T19:16:25;16.20;99.90
15834;DHT22;8017;50.812;4.934;2022-10-16T19:19:28;16.20;99.90
15834;DHT22;8017;50.812;4.934;2022-10-16T19:22:29;16.20;99.90
15834;DHT22;8017;50.812;4.934;2022-10-16T19:25:51;16.20;99.90
15834;DHT22;8017;50.812;4.934;2022-10-16T19:28:55;16.20;99.90
15834;DHT22;8017;50.812;4.934;2022-10-16T19:31:58;16.20;99.90
15834;DHT22;8017;50.812;4.934;2022-10-16T19:35:01;16.10;99.90
15834;DHT22;8017;50.812;4.934;2022-10-16T19:38:03;16.20;99.90
15834;DHT22;8017;50.812;4.934;2022-10-16T19:41:06;16.10;99.90
15834;DHT22;8017;50.812;4.934;2022-10-16T19:44:12;16.20;99.90
15834;DHT22;8017;50.812;4.934;2022-10-16T19:47:14;16.20;99.90
15834;DHT22;8017;50.812;4.934;2022-10-16T19:50:16;16.20;99.90